sensor_id;sensor_type;location;lat;lon;timestamp;temperature;humidity
12156;DHT22;6141;49.092;8.516;2023-08-06T00:01:25;18.80;52.30
12156;DHT22;6141;49.092;8.516;2023-08-06T00:03:55;18.80;51.90
12156;DHT22;6141;49.092;8.516;2023-08-06T00:06:23;18.60;52.40
12156;DHT22;6141;49.092;8.516;2023-08-06T00:08:51;18.50;53.30
12156;DHT22;6141;49.092;8.516;2023-08-06T00:11:19;18.50;53.30
12156;DHT22;6141;49.092;8.516;2023-08-06T00:13:48;18.30;53.10
12156;DHT22;6141;49.092;8.516;2023-08-06T00:16:16;18.30;53.30
12156;DHT22;6141;49.092;8.516;2023-08-06T00:18:44;18.30;53.10
12156;DHT22;6141;49.092;8.516;2023-08-06T00:21:13;18.40;53.10
12156;DHT22;6141;49.092;8.516;2023-08-06T00:23:42;18.40;52.20
12156;DHT22;6141;49.092;8.516;2023-08-06T00:26:10;18.30;53.10
12156;DHT22;6141;49.092;8.516;2023-08-06T00:28:38;18.60;52.10
12156;DHT22;6141;49.092;8.516;2023-08-06T00:31:06;18.50;52.10
12156;DHT22;6141;49.092;8.516;2023-08-06T00:33:34;18.50;51.10
12156;DHT22;6141;49.092;8.516;2023-08-06T00:36:02;18.30;51.40
12156;DHT22;6141;49.092;8.516;2023-08-06T00:38:32;18.20;51.40
12156;DHT22;6141;49.092;8.516;2023-08-06T00:41:00;17.80;52.50
12156;DHT22;6141;49.092;8.516;2023-08-06T00:43:29;17.70;52.50
12156;DHT22;6141;49.092;8.516;2023-08-06T00:45:57;17.90;52.70
12156;DHT22;6141;49.092;8.516;2023-08-06T00:48:25;18.00;52.80
12156;DHT22;6141;49.092;8.516;2023-08-06T00:50:54;18.20;52.20
12156;DHT22;6141;49.092;8.516;2023-08-06T00:53:23;18.20;51.80
12156;DHT22;6141;49.092;8.516;2023-08-06T00:55:52;17.80;51.80
12156;DHT22;6141;49.092;8.516;2023-08-06T00:58:21;17.50;52.90
12156;DHT22;6141;49.092;8.516;2023-08-06T01:00:49;17.40;54.00
12156;DHT22;6141;49.092;8.516;2023-08-06T01:03:18;17.40;55.10
12156;DHT22;6141;49.092;8.516;2023-08-06T01:05:46;17.50;55.40
12156;DHT22;6141;49.092;8.516;2023-08-06T01:08:22;17.70;54.40
12156;DHT22;6141;49.092;8.516;2023-08-06T01:11:05;17.80;53.50
12156;DHT22;6141;49.092;8.516;2023-08-06T01:13:42;17.90;52.60
12156;DHT22;6141;49.092;8.516;2023-08-06T01:16:11;18.30;53.10
12156;DHT22;6141;49.092;8.516;2023-08-06T01:18:42;18.60;50.90
12156;DHT22;6141;49.092;8.516;2023-08-06T01:21:14;18.70;49.60
12156;DHT22;6141;49.092;8.516;2023-08-06T01:23:43;18.80;49.50
12156;DHT22;6141;49.092;8.516;2023-08-06T01:26:15;18.80;49.40
12156;DHT22;6141;49.092;8.516;2023-08-06T01:28:53;18.70;48.80
12156;DHT22;6141;49.092;8.516;2023-08-06T01:31:27;18.80;49.60
12156;DHT22;6141;49.092;8.516;2023-08-06T01:33:58;19.00;48.60
12156;DHT22;6141;49.092;8.516;2023-08-06T01:36:28;19.10;47.70
12156;DHT22;6141;49.092;8.516;2023-08-06T01:38:59;19.10;47.60
12156;DHT22;6141;49.092;8.516;2023-08-06T01:41:29;19.00;48.00
12156;DHT22;6141;49.092;8.516;2023-08-06T01:43:57;18.90;48.30
12156;DHT22;6141;49.092;8.516;2023-08-06T01:46:25;18.90;48.60
12156;DHT22;6141;49.092;8.516;2023-08-06T01:48:53;18.90;47.40
12156;DHT22;6141;49.092;8.516;2023-08-06T01:51:21;18.90;48.40
12156;DHT22;6141;49.092;8.516;2023-08-06T01:53:51;18.80;48.30
12156;DHT22;6141;49.092;8.516;2023-08-06T01:56:19;18.60;49.10
12156;DHT22;6141;49.092;8.516;2023-08-06T01:58:47;18.50;49.70
12156;DHT22;6141;49.092;8.516;2023-08-06T02:01:17;18.60;48.40
12156;DHT22;6141;49.092;8.516;2023-08-06T02:03:45;18.50;48.60
12156;DHT22;6141;49.092;8.516;2023-08-06T02:06:13;18.10;49.60
12156;DHT22;6141;49.092;8.516;2023-08-06T02:08:41;17.80;52.00
12156;DHT22;6141;49.092;8.516;2023-08-06T02:11:11;17.80;53.80
12156;DHT22;6141;49.092;8.516;2023-08-06T02:13:39;17.40;52.20
12156;DHT22;6141;49.092;8.516;2023-08-06T02:16:08;17.00;55.30
12156;DHT22;6141;49.092;8.516;2023-08-06T02:18:36;16.90;57.50
12156;DHT22;6141;49.092;8.516;2023-08-06T02:21:04;16.80;57.70
12156;DHT22;6141;49.092;8.516;2023-08-06T02:23:32;16.80;58.90
12156;DHT22;6141;49.092;8.516;2023-08-06T02:26:01;16.50;59.40
12156;DHT22;6141;49.092;8.516;2023-08-06T02:28:31;16.70;60.10
12156;DHT22;6141;49.092;8.516;2023-08-06T02:30:59;16.80;59.30
12156;DHT22;6141;49.092;8.516;2023-08-06T02:33:28;16.80;59.30
12156;DHT22;6141;49.092;8.516;2023-08-06T02:35:59;16.90;59.70
12156;DHT22;6141;49.092;8.516;2023-08-06T02:38:28;16.80;59.50
12156;DHT22;6141;49.092;8.516;2023-08-06T02:40:56;16.80;59.30
12156;DHT22;6141;49.092;8.516;2023-08-06T02:43:25;16.80;59.60
12156;DHT22;6141;49.092;8.516;2023-08-06T02:45:56;16.90;59.30
12156;DHT22;6141;49.092;8.516;2023-08-06T02:48:25;17.00;57.90
12156;DHT22;6141;49.092;8.516;2023-08-06T02:50:57;16.90;58.40
12156;DHT22;6141;49.092;8.516;2023-08-06T02:53:27;16.90;58.80
12156;DHT22;6141;49.092;8.516;2023-08-06T02:55:57;16.70;58.80
12156;DHT22;6141;49.092;8.516;2023-08-06T02:58:34;16.70;59.20
12156;DHT22;6141;49.092;8.516;2023-08-06T03:01:12;16.70;60.80
12156;DHT22;6141;49.092;8.516;2023-08-06T03:03:47;16.50;60.80
12156;DHT22;6141;49.092;8.516;2023-08-06T03:06:23;16.50;61.50
12156;DHT22;6141;49.092;8.516;2023-08-06T03:08:54;16.30;62.20
12156;DHT22;6141;49.092;8.516;2023-08-06T03:11:22;16.30;62.60
12156;DHT22;6141;49.092;8.516;2023-08-06T03:13:55;16.40;62.40
12156;DHT22;6141;49.092;8.516;2023-08-06T03:16:24;16.40;61.10
12156;DHT22;6141;49.092;8.516;2023-08-06T03:18:53;16.40;62.30
12156;DHT22;6141;49.092;8.516;2023-08-06T03:21:22;16.20;62.60
12156;DHT22;6141;49.092;8.516;2023-08-06T03:23:50;16.10;63.90
12156;DHT22;6141;49.092;8.516;2023-08-06T03:26:23;16.20;64.80
12156;DHT22;6141;49.092;8.516;2023-08-06T03:28:51;16.10;64.00
12156;DHT22;6141;49.092;8.516;2023-08-06T03:31:19;16.00;64.00
12156;DHT22;6141;49.092;8.516;2023-08-06T03:33:49;16.00;64.00
12156;DHT22;6141;49.092;8.516;2023-08-06T03:36:22;16.00;64.60
12156;DHT22;6141;49.092;8.516;2023-08-06T03:38:51;16.00;65.40
12156;DHT22;6141;49.092;8.516;2023-08-06T03:41:20;16.00;65.40
12156;DHT22;6141;49.092;8.516;2023-08-06T03:43:48;16.10;64.70
12156;DHT22;6141;49.092;8.516;2023-08-06T03:46:23;16.10;64.10
12156;DHT22;6141;49.092;8.516;2023-08-06T03:48:54;16.10;63.40
12156;DHT22;6141;49.092;8.516;2023-08-06T03:51:22;16.10;62.80
12156;DHT22;6141;49.092;8.516;2023-08-06T03:53:52;16.00;63.40
12156;DHT22;6141;49.092;8.516;2023-08-06T03:56:20;16.00;63.60
12156;DHT22;6141;49.092;8.516;2023-08-06T03:58:49;16.00;63.30
12156;DHT22;6141;49.092;8.516;2023-08-06T04:01:17;16.00;63.80
12156;DHT22;6141;49.092;8.516;2023-08-06T04:03:47;16.10;63.90
12156;DHT22;6141;49.092;8.516;2023-08-06T04:06:17;16.00;64.20
12156;DHT22;6141;49.092;8.516;2023-08-06T04:08:45;15.80;64.50
12156;DHT22;6141;49.092;8.516;2023-08-06T04:11:13;15.80;64.80
12156;DHT22;6141;49.092;8.516;2023-08-06T04:13:42;15.80;64.50
12156;DHT22;6141;49.092;8.516;2023-08-06T04:16:11;15.70;64.40
12156;DHT22;6141;49.092;8.516;2023-08-06T04:18:40;15.70;64.30
12156;DHT22;6141;49.092;8.516;2023-08-06T04:21:08;15.80;63.90
12156;DHT22;6141;49.092;8.516;2023-08-06T04:23:38;15.80;64.50
12156;DHT22;6141;49.092;8.516;2023-08-06T04:26:08;16.00;64.90
12156;DHT22;6141;49.092;8.516;2023-08-06T04:28:37;15.90;64.50
12156;DHT22;6141;49.092;8.516;2023-08-06T04:31:05;15.80;64.60
12156;DHT22;6141;49.092;8.516;2023-08-06T04:33:34;15.80;63.30
12156;DHT22;6141;49.092;8.516;2023-08-06T04:36:07;15.90;63.90
12156;DHT22;6141;49.092;8.516;2023-08-06T04:38:37;15.70;63.50
12156;DHT22;6141;49.092;8.516;2023-08-06T04:41:08;15.60;64.90
12156;DHT22;6141;49.092;8.516;2023-08-06T04:43:36;15.60;64.80
12156;DHT22;6141;49.092;8.516;2023-08-06T04:46:05;15.60;65.10
12156;DHT22;6141;49.092;8.516;2023-08-06T04:48:33;15.60;64.90
12156;DHT22;6141;49.092;8.516;2023-08-06T04:51:01;15.60;65.00
12156;DHT22;6141;49.092;8.516;2023-08-06T04:53:29;15.70;65.90
12156;DHT22;6141;49.092;8.516;2023-08-06T04:55:59;15.60;64.70
12156;DHT22;6141;49.092;8.516;2023-08-06T04:58:27;15.70;65.40
12156;DHT22;6141;49.092;8.516;2023-08-06T05:00:55;15.80;65.30
12156;DHT22;6141;49.092;8.516;2023-08-06T05:03:23;15.80;64.90
12156;DHT22;6141;49.092;8.516;2023-08-06T05:05:51;15.80;64.70
12156;DHT22;6141;49.092;8.516;2023-08-06T05:08:19;15.80;64.40
12156;DHT22;6141;49.092;8.516;2023-08-06T05:10:47;15.70;65.00
12156;DHT22;6141;49.092;8.516;2023-08-06T05:13:16;15.70;64.30
12156;DHT22;6141;49.092;8.516;2023-08-06T05:15:44;15.70;64.90
12156;DHT22;6141;49.092;8.516;2023-08-06T05:18:13;15.70;65.20
12156;DHT22;6141;49.092;8.516;2023-08-06T05:20:42;15.80;64.80
12156;DHT22;6141;49.092;8.516;2023-08-06T05:23:10;15.70;65.20
12156;DHT22;6141;49.092;8.516;2023-08-06T05:25:38;15.70;66.20
12156;DHT22;6141;49.092;8.516;2023-08-06T05:28:06;15.70;65.70
12156;DHT22;6141;49.092;8.516;2023-08-06T05:30:39;15.70;66.10
12156;DHT22;6141;49.092;8.516;2023-08-06T05:33:07;15.70;65.90
12156;DHT22;6141;49.092;8.516;2023-08-06T05:35:35;15.70;67.00
12156;DHT22;6141;49.092;8.516;2023-08-06T05:38:03;15.70;66.70
12156;DHT22;6141;49.092;8.516;2023-08-06T05:40:33;15.70;67.20
12156;DHT22;6141;49.092;8.516;2023-08-06T05:43:01;15.70;69.60
12156;DHT22;6141;49.092;8.516;2023-08-06T05:45:29;15.60;69.80
12156;DHT22;6141;49.092;8.516;2023-08-06T05:47:59;15.60;71.80
12156;DHT22;6141;49.092;8.516;2023-08-06T05:50:27;15.60;74.00
12156;DHT22;6141;49.092;8.516;2023-08-06T05:52:55;15.60;78.60
12156;DHT22;6141;49.092;8.516;2023-08-06T05:55:27;15.50;79.90
12156;DHT22;6141;49.092;8.516;2023-08-06T05:57:55;15.50;79.40
12156;DHT22;6141;49.092;8.516;2023-08-06T06:00:23;15.50;81.00
12156;DHT22;6141;49.092;8.516;2023-08-06T06:02:51;15.40;81.60
12156;DHT22;6141;49.092;8.516;2023-08-06T06:05:20;15.40;82.50
12156;DHT22;6141;49.092;8.516;2023-08-06T06:07:48;15.40;82.60
12156;DHT22;6141;49.092;8.516;2023-08-06T06:10:17;15.40;81.60
12156;DHT22;6141;49.092;8.516;2023-08-06T06:12:45;15.50;81.80
12156;DHT22;6141;49.092;8.516;2023-08-06T06:15:13;15.50;82.20
12156;DHT22;6141;49.092;8.516;2023-08-06T06:17:41;15.50;82.20
12156;DHT22;6141;49.092;8.516;2023-08-06T06:20:09;15.60;82.20
12156;DHT22;6141;49.092;8.516;2023-08-06T06:22:39;15.50;81.80
12156;DHT22;6141;49.092;8.516;2023-08-06T06:25:07;15.50;82.60
12156;DHT22;6141;49.092;8.516;2023-08-06T06:27:36;15.50;82.60
12156;DHT22;6141;49.092;8.516;2023-08-06T06:30:05;15.40;81.10
12156;DHT22;6141;49.092;8.516;2023-08-06T06:32:34;15.40;83.20
12156;DHT22;6141;49.092;8.516;2023-08-06T06:35:02;15.60;83.20
12156;DHT22;6141;49.092;8.516;2023-08-06T06:37:32;15.60;81.30
12156;DHT22;6141;49.092;8.516;2023-08-06T06:40:01;15.50;80.70
12156;DHT22;6141;49.092;8.516;2023-08-06T06:42:30;15.60;81.30
12156;DHT22;6141;49.092;8.516;2023-08-06T06:45:00;15.50;78.40
12156;DHT22;6141;49.092;8.516;2023-08-06T06:47:29;15.50;79.50
12156;DHT22;6141;49.092;8.516;2023-08-06T06:49:57;15.40;78.50
12156;DHT22;6141;49.092;8.516;2023-08-06T06:52:25;15.40;78.50
12156;DHT22;6141;49.092;8.516;2023-08-06T06:54:53;15.40;79.40
12156;DHT22;6141;49.092;8.516;2023-08-06T06:57:22;15.30;81.00
12156;DHT22;6141;49.092;8.516;2023-08-06T06:59:50;15.30;80.40
12156;DHT22;6141;49.092;8.516;2023-08-06T07:02:18;15.30;80.00
12156;DHT22;6141;49.092;8.516;2023-08-06T07:04:46;15.30;80.20
12156;DHT22;6141;49.092;8.516;2023-08-06T07:07:14;15.20;80.90
12156;DHT22;6141;49.092;8.516;2023-08-06T07:09:42;15.20;82.20
12156;DHT22;6141;49.092;8.516;2023-08-06T07:12:11;15.30;82.50
12156;DHT22;6141;49.092;8.516;2023-08-06T07:14:40;15.30;82.30
12156;DHT22;6141;49.092;8.516;2023-08-06T07:17:08;15.40;82.90
12156;DHT22;6141;49.092;8.516;2023-08-06T07:19:36;15.20;82.00
12156;DHT22;6141;49.092;8.516;2023-08-06T07:22:05;15.20;83.60
12156;DHT22;6141;49.092;8.516;2023-08-06T07:24:34;15.10;82.70
12156;DHT22;6141;49.092;8.516;2023-08-06T07:27:02;15.20;84.20
12156;DHT22;6141;49.092;8.516;2023-08-06T07:29:30;15.30;84.00
12156;DHT22;6141;49.092;8.516;2023-08-06T07:31:59;15.20;83.10
12156;DHT22;6141;49.092;8.516;2023-08-06T07:34:27;15.30;83.10
12156;DHT22;6141;49.092;8.516;2023-08-06T07:36:55;15.40;81.90
12156;DHT22;6141;49.092;8.516;2023-08-06T07:39:24;15.30;81.00
12156;DHT22;6141;49.092;8.516;2023-08-06T07:41:52;15.30;81.70
12156;DHT22;6141;49.092;8.516;2023-08-06T07:44:20;15.40;81.10
12156;DHT22;6141;49.092;8.516;2023-08-06T07:46:48;15.30;81.00
12156;DHT22;6141;49.092;8.516;2023-08-06T07:49:18;15.40;81.50
12156;DHT22;6141;49.092;8.516;2023-08-06T07:51:46;15.40;80.40
12156;DHT22;6141;49.092;8.516;2023-08-06T07:54:14;15.50;81.20
12156;DHT22;6141;49.092;8.516;2023-08-06T07:56:42;15.50;81.20
12156;DHT22;6141;49.092;8.516;2023-08-06T07:59:10;15.50;81.00
12156;DHT22;6141;49.092;8.516;2023-08-06T08:01:38;15.60;81.30
12156;DHT22;6141;49.092;8.516;2023-08-06T08:04:06;15.50;82.80
12156;DHT22;6141;49.092;8.516;2023-08-06T08:06:35;15.40;83.20
12156;DHT22;6141;49.092;8.516;2023-08-06T08:09:03;15.40;82.20
12156;DHT22;6141;49.092;8.516;2023-08-06T08:11:31;15.50;82.40
12156;DHT22;6141;49.092;8.516;2023-08-06T08:13:59;15.50;84.40
12156;DHT22;6141;49.092;8.516;2023-08-06T08:16:27;15.50;84.70
12156;DHT22;6141;49.092;8.516;2023-08-06T08:18:55;15.50;84.50
12156;DHT22;6141;49.092;8.516;2023-08-06T08:21:23;15.60;84.80
12156;DHT22;6141;49.092;8.516;2023-08-06T08:23:53;15.60;86.50
12156;DHT22;6141;49.092;8.516;2023-08-06T08:26:21;15.60;90.40
12156;DHT22;6141;49.092;8.516;2023-08-06T08:28:50;15.70;89.90
12156;DHT22;6141;49.092;8.516;2023-08-06T08:31:18;15.70;90.20
12156;DHT22;6141;49.092;8.516;2023-08-06T08:33:46;15.50;90.00
12156;DHT22;6141;49.092;8.516;2023-08-06T08:36:14;15.40;91.90
12156;DHT22;6141;49.092;8.516;2023-08-06T08:38:42;15.40;92.10
12156;DHT22;6141;49.092;8.516;2023-08-06T08:41:12;15.60;92.00
12156;DHT22;6141;49.092;8.516;2023-08-06T08:43:40;15.70;91.00
12156;DHT22;6141;49.092;8.516;2023-08-06T08:46:10;15.50;90.90
12156;DHT22;6141;49.092;8.516;2023-08-06T08:48:39;15.50;91.40
12156;DHT22;6141;49.092;8.516;2023-08-06T08:51:08;15.50;90.50
12156;DHT22;6141;49.092;8.516;2023-08-06T08:53:37;15.40;90.70
12156;DHT22;6141;49.092;8.516;2023-08-06T08:56:06;15.30;91.40
12156;DHT22;6141;49.092;8.516;2023-08-06T08:58:35;15.30;90.80
12156;DHT22;6141;49.092;8.516;2023-08-06T09:01:04;15.30;92.50
12156;DHT22;6141;49.092;8.516;2023-08-06T09:03:34;15.40;92.30
12156;DHT22;6141;49.092;8.516;2023-08-06T09:06:03;15.50;91.70
12156;DHT22;6141;49.092;8.516;2023-08-06T09:08:36;15.70;92.20
12156;DHT22;6141;49.092;8.516;2023-08-06T09:11:05;15.80;91.90
12156;DHT22;6141;49.092;8.516;2023-08-06T09:13:38;15.90;91.40
12156;DHT22;6141;49.092;8.516;2023-08-06T09:16:06;15.80;91.20
12156;DHT22;6141;49.092;8.516;2023-08-06T09:18:34;15.90;91.60
12156;DHT22;6141;49.092;8.516;2023-08-06T09:21:13;15.90;91.70
12156;DHT22;6141;49.092;8.516;2023-08-06T09:23:42;15.90;91.00
12156;DHT22;6141;49.092;8.516;2023-08-06T09:26:14;15.90;91.80
12156;DHT22;6141;49.092;8.516;2023-08-06T09:28:44;15.80;91.30
12156;DHT22;6141;49.092;8.516;2023-08-06T09:31:12;15.90;92.30
12156;DHT22;6141;49.092;8.516;2023-08-06T09:33:40;16.00;92.70
12156;DHT22;6141;49.092;8.516;2023-08-06T09:36:09;16.10;91.30
12156;DHT22;6141;49.092;8.516;2023-08-06T09:38:41;16.10;90.80
12156;DHT22;6141;49.092;8.516;2023-08-06T09:41:09;15.90;90.30
12156;DHT22;6141;49.092;8.516;2023-08-06T09:43:41;16.00;91.00
12156;DHT22;6141;49.092;8.516;2023-08-06T09:46:14;16.00;92.00
12156;DHT22;6141;49.092;8.516;2023-08-06T09:48:47;15.90;90.80
12156;DHT22;6141;49.092;8.516;2023-08-06T09:51:16;15.90;87.60
12156;DHT22;6141;49.092;8.516;2023-08-06T09:53:46;15.90;90.20
12156;DHT22;6141;49.092;8.516;2023-08-06T09:56:15;15.90;90.20
12156;DHT22;6141;49.092;8.516;2023-08-06T09:58:45;15.80;89.90
12156;DHT22;6141;49.092;8.516;2023-08-06T10:01:16;15.70;90.20
12156;DHT22;6141;49.092;8.516;2023-08-06T10:03:46;15.80;90.20
12156;DHT22;6141;49.092;8.516;2023-08-06T10:06:15;15.90;90.30
12156;DHT22;6141;49.092;8.516;2023-08-06T10:08:44;15.90;89.20
12156;DHT22;6141;49.092;8.516;2023-08-06T10:11:12;15.80;87.40
12156;DHT22;6141;49.092;8.516;2023-08-06T10:13:41;15.80;88.20
12156;DHT22;6141;49.092;8.516;2023-08-06T10:16:10;15.80;89.20
12156;DHT22;6141;49.092;8.516;2023-08-06T10:18:41;15.80;86.90
12156;DHT22;6141;49.092;8.516;2023-08-06T10:21:09;15.80;88.10
12156;DHT22;6141;49.092;8.516;2023-08-06T10:23:40;15.80;87.70
12156;DHT22;6141;49.092;8.516;2023-08-06T10:26:08;15.90;87.20
12156;DHT22;6141;49.092;8.516;2023-08-06T10:28:37;15.80;87.60
12156;DHT22;6141;49.092;8.516;2023-08-06T10:31:06;15.80;88.30
12156;DHT22;6141;49.092;8.516;2023-08-06T10:33:43;15.90;86.90
12156;DHT22;6141;49.092;8.516;2023-08-06T10:36:11;15.90;86.30
12156;DHT22;6141;49.092;8.516;2023-08-06T10:38:49;15.80;84.10
12156;DHT22;6141;49.092;8.516;2023-08-06T10:41:27;15.70;86.10
12156;DHT22;6141;49.092;8.516;2023-08-06T10:44:05;15.70;85.80
12156;DHT22;6141;49.092;8.516;2023-08-06T10:46:35;15.70;84.40
12156;DHT22;6141;49.092;8.516;2023-08-06T10:49:04;15.70;85.00
12156;DHT22;6141;49.092;8.516;2023-08-06T10:51:34;15.60;84.60
12156;DHT22;6141;49.092;8.516;2023-08-06T10:54:04;15.70;81.30
12156;DHT22;6141;49.092;8.516;2023-08-06T10:56:40;15.60;83.30
12156;DHT22;6141;49.092;8.516;2023-08-06T10:59:08;15.70;85.00
12156;DHT22;6141;49.092;8.516;2023-08-06T11:01:38;15.50;83.90
12156;DHT22;6141;49.092;8.516;2023-08-06T11:04:08;15.60;82.70
12156;DHT22;6141;49.092;8.516;2023-08-06T11:06:42;15.50;82.10
12156;DHT22;6141;49.092;8.516;2023-08-06T11:09:10;15.60;84.30
12156;DHT22;6141;49.092;8.516;2023-08-06T11:11:38;15.60;83.00
12156;DHT22;6141;49.092;8.516;2023-08-06T11:14:15;15.50;85.10
12156;DHT22;6141;49.092;8.516;2023-08-06T11:16:43;15.60;86.10
12156;DHT22;6141;49.092;8.516;2023-08-06T11:19:12;15.50;84.30
12156;DHT22;6141;49.092;8.516;2023-08-06T11:21:43;15.40;84.10
12156;DHT22;6141;49.092;8.516;2023-08-06T11:24:11;15.40;84.70
12156;DHT22;6141;49.092;8.516;2023-08-06T11:26:39;15.30;85.50
12156;DHT22;6141;49.092;8.516;2023-08-06T11:29:08;15.30;85.60
12156;DHT22;6141;49.092;8.516;2023-08-06T11:31:36;15.30;85.80
12156;DHT22;6141;49.092;8.516;2023-08-06T11:34:04;15.40;87.50
12156;DHT22;6141;49.092;8.516;2023-08-06T11:36:34;15.30;83.60
12156;DHT22;6141;49.092;8.516;2023-08-06T11:39:08;15.30;85.60
12156;DHT22;6141;49.092;8.516;2023-08-06T11:41:36;15.10;84.00
12156;DHT22;6141;49.092;8.516;2023-08-06T11:44:06;15.10;85.40
12156;DHT22;6141;49.092;8.516;2023-08-06T11:46:54;15.00;84.00
12156;DHT22;6141;49.092;8.516;2023-08-06T11:49:41;15.10;84.20
12156;DHT22;6141;49.092;8.516;2023-08-06T11:52:14;15.20;84.10
12156;DHT22;6141;49.092;8.516;2023-08-06T11:54:46;15.30;84.10
12156;DHT22;6141;49.092;8.516;2023-08-06T11:57:15;15.30;83.80
12156;DHT22;6141;49.092;8.516;2023-08-06T11:59:45;15.40;82.60
12156;DHT22;6141;49.092;8.516;2023-08-06T12:02:13;15.50;82.20
12156;DHT22;6141;49.092;8.516;2023-08-06T12:05:04;15.60;79.40
12156;DHT22;6141;49.092;8.516;2023-08-06T12:07:37;15.50;81.20
12156;DHT22;6141;49.092;8.516;2023-08-06T12:10:06;15.50;78.20
12156;DHT22;6141;49.092;8.516;2023-08-06T12:12:35;15.60;78.30
12156;DHT22;6141;49.092;8.516;2023-08-06T12:15:05;15.50;76.50
12156;DHT22;6141;49.092;8.516;2023-08-06T12:17:34;15.60;77.10
12156;DHT22;6141;49.092;8.516;2023-08-06T12:20:02;15.50;74.80
12156;DHT22;6141;49.092;8.516;2023-08-06T12:22:31;15.70;76.70
12156;DHT22;6141;49.092;8.516;2023-08-06T12:25:04;15.70;77.20
12156;DHT22;6141;49.092;8.516;2023-08-06T12:27:34;15.80;75.10
12156;DHT22;6141;49.092;8.516;2023-08-06T12:30:04;15.80;72.00
12156;DHT22;6141;49.092;8.516;2023-08-06T12:32:33;15.80;73.30
12156;DHT22;6141;49.092;8.516;2023-08-06T12:35:02;15.80;72.90
12156;DHT22;6141;49.092;8.516;2023-08-06T12:37:31;15.80;72.00
12156;DHT22;6141;49.092;8.516;2023-08-06T12:39:59;15.80;71.20
12156;DHT22;6141;49.092;8.516;2023-08-06T12:42:50;16.00;71.10
12156;DHT22;6141;49.092;8.516;2023-08-06T12:45:19;15.90;70.40
12156;DHT22;6141;49.092;8.516;2023-08-06T12:47:48;15.90;70.20
12156;DHT22;6141;49.092;8.516;2023-08-06T12:50:17;16.00;71.60
12156;DHT22;6141;49.092;8.516;2023-08-06T12:52:45;15.90;68.30
12156;DHT22;6141;49.092;8.516;2023-08-06T12:55:13;15.80;68.90
12156;DHT22;6141;49.092;8.516;2023-08-06T12:57:41;15.90;69.40
12156;DHT22;6141;49.092;8.516;2023-08-06T13:00:26;15.90;69.20
12156;DHT22;6141;49.092;8.516;2023-08-06T13:02:54;15.90;72.10
12156;DHT22;6141;49.092;8.516;2023-08-06T13:05:22;15.80;72.90
12156;DHT22;6141;49.092;8.516;2023-08-06T13:07:51;15.80;74.90
12156;DHT22;6141;49.092;8.516;2023-08-06T13:10:19;15.60;74.70
12156;DHT22;6141;49.092;8.516;2023-08-06T13:12:48;15.60;76.30
12156;DHT22;6141;49.092;8.516;2023-08-06T13:15:16;15.60;77.60
12156;DHT22;6141;49.092;8.516;2023-08-06T13:17:48;15.60;78.00
12156;DHT22;6141;49.092;8.516;2023-08-06T13:20:16;15.80;75.80
12156;DHT22;6141;49.092;8.516;2023-08-06T13:22:47;16.00;80.40
12156;DHT22;6141;49.092;8.516;2023-08-06T13:25:18;16.10;72.20
12156;DHT22;6141;49.092;8.516;2023-08-06T13:27:46;16.20;75.00
12156;DHT22;6141;49.092;8.516;2023-08-06T13:30:15;16.10;70.50
12156;DHT22;6141;49.092;8.516;2023-08-06T13:32:45;16.20;72.30
12156;DHT22;6141;49.092;8.516;2023-08-06T13:35:14;16.20;67.30
12156;DHT22;6141;49.092;8.516;2023-08-06T13:37:42;16.30;67.50
12156;DHT22;6141;49.092;8.516;2023-08-06T13:40:11;16.30;67.40
12156;DHT22;6141;49.092;8.516;2023-08-06T13:42:39;16.30;67.00
12156;DHT22;6141;49.092;8.516;2023-08-06T13:45:07;16.30;65.60
12156;DHT22;6141;49.092;8.516;2023-08-06T13:47:36;16.30;66.70
12156;DHT22;6141;49.092;8.516;2023-08-06T13:50:05;16.30;62.30
12156;DHT22;6141;49.092;8.516;2023-08-06T13:52:34;16.40;62.70
12156;DHT22;6141;49.092;8.516;2023-08-06T13:55:03;16.50;64.60
12156;DHT22;6141;49.092;8.516;2023-08-06T13:57:31;16.40;63.60
12156;DHT22;6141;49.092;8.516;2023-08-06T14:00:00;16.50;64.10
12156;DHT22;6141;49.092;8.516;2023-08-06T14:02:38;16.60;64.30
12156;DHT22;6141;49.092;8.516;2023-08-06T14:05:07;16.60;62.90
12156;DHT22;6141;49.092;8.516;2023-08-06T14:07:36;16.50;57.60
12156;DHT22;6141;49.092;8.516;2023-08-06T14:10:05;16.60;61.10
12156;DHT22;6141;49.092;8.516;2023-08-06T14:12:34;16.50;58.60
12156;DHT22;6141;49.092;8.516;2023-08-06T14:15:02;16.50;59.50
12156;DHT22;6141;49.092;8.516;2023-08-06T14:17:31;16.60;57.80
12156;DHT22;6141;49.092;8.516;2023-08-06T14:19:59;16.60;57.50
12156;DHT22;6141;49.092;8.516;2023-08-06T14:22:27;16.70;59.10
12156;DHT22;6141;49.092;8.516;2023-08-06T14:24:58;16.70;56.90
12156;DHT22;6141;49.092;8.516;2023-08-06T14:27:26;16.70;57.60
12156;DHT22;6141;49.092;8.516;2023-08-06T14:29:54;16.80;56.40
12156;DHT22;6141;49.092;8.516;2023-08-06T14:32:22;16.80;55.90
12156;DHT22;6141;49.092;8.516;2023-08-06T14:34:51;16.90;53.30
12156;DHT22;6141;49.092;8.516;2023-08-06T14:37:19;17.00;52.20
12156;DHT22;6141;49.092;8.516;2023-08-06T14:39:47;17.20;52.80
12156;DHT22;6141;49.092;8.516;2023-08-06T14:42:16;17.10;52.80
12156;DHT22;6141;49.092;8.516;2023-08-06T14:44:45;17.10;50.80
12156;DHT22;6141;49.092;8.516;2023-08-06T14:47:13;17.00;49.90
12156;DHT22;6141;49.092;8.516;2023-08-06T14:49:41;16.90;45.10
12156;DHT22;6141;49.092;8.516;2023-08-06T14:52:09;16.90;46.00
12156;DHT22;6141;49.092;8.516;2023-08-06T14:54:37;17.00;45.80
12156;DHT22;6141;49.092;8.516;2023-08-06T14:57:06;17.00;46.70
12156;DHT22;6141;49.092;8.516;2023-08-06T14:59:36;16.90;46.80
12156;DHT22;6141;49.092;8.516;2023-08-06T15:02:06;16.90;46.50
12156;DHT22;6141;49.092;8.516;2023-08-06T15:04:34;17.00;46.60
12156;DHT22;6141;49.092;8.516;2023-08-06T15:07:02;17.00;46.20
12156;DHT22;6141;49.092;8.516;2023-08-06T15:09:31;17.00;46.50
12156;DHT22;6141;49.092;8.516;2023-08-06T15:12:19;17.10;45.60
12156;DHT22;6141;49.092;8.516;2023-08-06T15:14:49;17.20;46.30
12156;DHT22;6141;49.092;8.516;2023-08-06T15:17:17;17.30;45.00
12156;DHT22;6141;49.092;8.516;2023-08-06T15:19:45;17.30;45.20
12156;DHT22;6141;49.092;8.516;2023-08-06T15:22:13;17.20;43.90
12156;DHT22;6141;49.092;8.516;2023-08-06T15:24:41;17.20;45.70
12156;DHT22;6141;49.092;8.516;2023-08-06T15:27:11;17.10;50.20
12156;DHT22;6141;49.092;8.516;2023-08-06T15:29:40;16.80;51.50
12156;DHT22;6141;49.092;8.516;2023-08-06T15:32:10;16.50;52.80
12156;DHT22;6141;49.092;8.516;2023-08-06T15:34:41;16.50;59.10
12156;DHT22;6141;49.092;8.516;2023-08-06T15:37:09;16.40;61.60
12156;DHT22;6141;49.092;8.516;2023-08-06T15:39:37;16.30;63.10
12156;DHT22;6141;49.092;8.516;2023-08-06T15:42:05;16.20;67.00
12156;DHT22;6141;49.092;8.516;2023-08-06T15:44:33;15.90;64.80
12156;DHT22;6141;49.092;8.516;2023-08-06T15:47:03;15.70;67.40
12156;DHT22;6141;49.092;8.516;2023-08-06T15:49:32;15.70;71.90
12156;DHT22;6141;49.092;8.516;2023-08-06T15:52:01;15.70;75.00
12156;DHT22;6141;49.092;8.516;2023-08-06T15:54:29;15.70;74.40
12156;DHT22;6141;49.092;8.516;2023-08-06T15:56:57;15.80;77.10
12156;DHT22;6141;49.092;8.516;2023-08-06T15:59:28;15.90;77.00